sensor_id;sensor_type;location;lat;lon;timestamp;P1;durP1;ratioP1;P2;durP2;ratioP2
25155;SDS011;21913;52.456;13.634;2023-02-25T00:04:52;10.23;;;3.00;;
25155;SDS011;21913;52.456;13.634;2023-02-25T00:09:53;9.32;;;3.38;;
25155;SDS011;21913;52.456;13.634;2023-02-25T00:14:55;10.00;;;2.95;;
25155;SDS011;21913;52.456;13.634;2023-02-25T00:19:57;8.80;;;2.90;;
25155;SDS011;21913;52.456;13.634;2023-02-25T00:24:59;11.52;;;2.85;;
25155;SDS011;21913;52.456;13.634;2023-02-25T00:30:00;11.30;;;2.90;;
25155;SDS011;21913;52.456;13.634;2023-02-25T00:35:02;9.60;;;2.55;;
25155;SDS011;21913;52.456;13.634;2023-02-25T00:40:04;7.43;;;2.70;;
25155;SDS011;21913;52.456;13.634;2023-02-25T00:45:07;7.45;;;2.58;;
25155;SDS011;21913;52.456;13.634;2023-02-25T00:50:11;8.88;;;3.00;;
25155;SDS011;21913;52.456;13.634;2023-02-25T00:55:13;8.50;;;2.53;;
25155;SDS011;21913;52.456;13.634;2023-02-25T01:00:14;7.78;;;2.55;;
25155;SDS011;21913;52.456;13.634;2023-02-25T01:05:16;7.93;;;2.67;;
25155;SDS011;21913;52.456;13.634;2023-02-25T01:10:18;7.38;;;2.55;;
25155;SDS011;21913;52.456;13.634;2023-02-25T01:15:20;8.52;;;2.60;;
25155;SDS011;21913;52.456;13.634;2023-02-25T01:20:21;7.47;;;2.53;;
25155;SDS011;21913;52.456;13.634;2023-02-25T01:25:24;8.98;;;2.50;;
25155;SDS011;21913;52.456;13.634;2023-02-25T01:30:26;5.47;;;2.20;;
25155;SDS011;21913;52.456;13.634;2023-02-25T01:35:28;7.53;;;2.50;;
25155;SDS011;21913;52.456;13.634;2023-02-25T01:40:29;7.50;;;2.42;;
25155;SDS011;21913;52.456;13.634;2023-02-25T01:45:31;5.05;;;2.05;;
25155;SDS011;21913;52.456;13.634;2023-02-25T01:50:35;8.13;;;2.67;;
25155;SDS011;21913;52.456;13.634;2023-02-25T01:55:42;7.38;;;2.25;;
25155;SDS011;21913;52.456;13.634;2023-02-25T02:00:44;6.20;;;2.55;;
25155;SDS011;21913;52.456;13.634;2023-02-25T02:11:18;6.45;;;2.00;;
25155;SDS011;21913;52.456;13.634;2023-02-25T02:21:58;7.30;;;2.13;;
25155;SDS011;21913;52.456;13.634;2023-02-25T02:27:03;5.55;;;2.20;;
25155;SDS011;21913;52.456;13.634;2023-02-25T02:43:48;7.03;;;2.08;;
25155;SDS011;21913;52.456;13.634;2023-02-25T02:49:04;8.25;;;2.17;;
25155;SDS011;21913;52.456;13.634;2023-02-25T02:54:11;6.85;;;2.20;;
25155;SDS011;21913;52.456;13.634;2023-02-25T02:59:27;5.93;;;2.15;;
25155;SDS011;21913;52.456;13.634;2023-02-25T03:04:36;6.28;;;2.03;;
25155;SDS011;21913;52.456;13.634;2023-02-25T03:09:54;5.65;;;1.95;;
25155;SDS011;21913;52.456;13.634;2023-02-25T03:15:05;4.30;;;2.00;;
25155;SDS011;21913;52.456;13.634;2023-02-25T03:25:14;5.72;;;1.95;;
25155;SDS011;21913;52.456;13.634;2023-02-25T03:35:25;4.78;;;1.80;;
25155;SDS011;21913;52.456;13.634;2023-02-25T03:40:29;6.13;;;1.80;;
25155;SDS011;21913;52.456;13.634;2023-02-25T03:45:35;4.38;;;1.92;;
25155;SDS011;21913;52.456;13.634;2023-02-25T03:50:40;6.10;;;2.00;;
25155;SDS011;21913;52.456;13.634;2023-02-25T03:55:46;4.25;;;1.67;;
25155;SDS011;21913;52.456;13.634;2023-02-25T04:00:48;4.40;;;1.77;;
25155;SDS011;21913;52.456;13.634;2023-02-25T04:05:58;5.10;;;1.88;;
25155;SDS011;21913;52.456;13.634;2023-02-25T04:11:00;5.25;;;1.90;;
25155;SDS011;21913;52.456;13.634;2023-02-25T04:16:02;5.38;;;1.90;;
25155;SDS011;21913;52.456;13.634;2023-02-25T04:21:07;5.35;;;1.80;;
25155;SDS011;21913;52.456;13.634;2023-02-25T04:26:09;7.03;;;2.00;;
25155;SDS011;21913;52.456;13.634;2023-02-25T04:31:11;5.53;;;1.70;;
25155;SDS011;21913;52.456;13.634;2023-02-25T04:36:32;6.40;;;2.00;;
25155;SDS011;21913;52.456;13.634;2023-02-25T04:41:35;4.35;;;1.73;;
25155;SDS011;21913;52.456;13.634;2023-02-25T04:46:41;4.30;;;1.90;;
25155;SDS011;21913;52.456;13.634;2023-02-25T04:51:43;3.50;;;1.58;;
25155;SDS011;21913;52.456;13.634;2023-02-25T04:56:45;4.05;;;1.80;;
25155;SDS011;21913;52.456;13.634;2023-02-25T05:01:47;4.85;;;1.65;;
25155;SDS011;21913;52.456;13.634;2023-02-25T05:06:49;5.22;;;1.77;;
25155;SDS011;21913;52.456;13.634;2023-02-25T05:11:50;5.25;;;1.80;;
25155;SDS011;21913;52.456;13.634;2023-02-25T05:16:52;5.35;;;1.80;;
25155;SDS011;21913;52.456;13.634;2023-02-25T05:21:53;5.90;;;1.90;;
25155;SDS011;21913;52.456;13.634;2023-02-25T05:26:55;4.53;;;1.70;;
25155;SDS011;21913;52.456;13.634;2023-02-25T05:31:56;4.63;;;1.52;;
25155;SDS011;21913;52.456;13.634;2023-02-25T05:36:58;5.22;;;1.70;;
25155;SDS011;21913;52.456;13.634;2023-02-25T05:42:00;3.75;;;1.58;;
25155;SDS011;21913;52.456;13.634;2023-02-25T05:47:01;3.97;;;1.70;;
25155;SDS011;21913;52.456;13.634;2023-02-25T05:52:03;4.97;;;1.77;;
25155;SDS011;21913;52.456;13.634;2023-02-25T05:57:05;4.57;;;1.75;;
25155;SDS011;21913;52.456;13.634;2023-02-25T06:02:06;4.40;;;1.65;;
25155;SDS011;21913;52.456;13.634;2023-02-25T06:07:08;5.18;;;1.60;;
25155;SDS011;21913;52.456;13.634;2023-02-25T06:12:10;4.95;;;1.42;;
25155;SDS011;21913;52.456;13.634;2023-02-25T06:17:11;4.75;;;1.90;;
25155;SDS011;21913;52.456;13.634;2023-02-25T06:22:13;5.05;;;1.40;;
25155;SDS011;21913;52.456;13.634;2023-02-25T06:27:14;5.63;;;1.70;;
25155;SDS011;21913;52.456;13.634;2023-02-25T06:32:16;4.45;;;1.52;;
25155;SDS011;21913;52.456;13.634;2023-02-25T06:37:18;4.63;;;1.60;;
25155;SDS011;21913;52.456;13.634;2023-02-25T06:42:20;4.22;;;1.70;;
25155;SDS011;21913;52.456;13.634;2023-02-25T06:47:22;5.30;;;1.60;;
25155;SDS011;21913;52.456;13.634;2023-02-25T06:52:23;5.55;;;1.80;;
25155;SDS011;21913;52.456;13.634;2023-02-25T06:57:25;5.88;;;1.75;;
25155;SDS011;21913;52.456;13.634;2023-02-25T07:02:27;3.42;;;1.30;;
25155;SDS011;21913;52.456;13.634;2023-02-25T07:07:29;4.68;;;1.60;;
25155;SDS011;21913;52.456;13.634;2023-02-25T07:12:30;4.32;;;1.50;;
25155;SDS011;21913;52.456;13.634;2023-02-25T07:17:32;5.97;;;1.88;;
25155;SDS011;21913;52.456;13.634;2023-02-25T07:22:34;6.53;;;1.75;;
25155;SDS011;21913;52.456;13.634;2023-02-25T07:27:38;7.00;;;1.88;;
25155;SDS011;21913;52.456;13.634;2023-02-25T07:32:43;4.40;;;1.30;;
25155;SDS011;21913;52.456;13.634;2023-02-25T07:37:44;5.05;;;1.60;;
25155;SDS011;21913;52.456;13.634;2023-02-25T07:42:46;4.72;;;1.70;;
25155;SDS011;21913;52.456;13.634;2023-02-25T07:47:51;4.97;;;1.75;;
25155;SDS011;21913;52.456;13.634;2023-02-25T07:52:53;4.38;;;1.63;;
25155;SDS011;21913;52.456;13.634;2023-02-25T07:57:55;5.00;;;1.63;;
25155;SDS011;21913;52.456;13.634;2023-02-25T08:02:57;3.50;;;1.55;;
25155;SDS011;21913;52.456;13.634;2023-02-25T08:07:59;5.00;;;1.45;;
25155;SDS011;21913;52.456;13.634;2023-02-25T08:13:00;5.13;;;1.63;;
25155;SDS011;21913;52.456;13.634;2023-02-25T08:18:02;4.07;;;1.55;;
25155;SDS011;21913;52.456;13.634;2023-02-25T08:23:04;4.07;;;1.45;;
25155;SDS011;21913;52.456;13.634;2023-02-25T08:28:05;5.78;;;1.90;;
25155;SDS011;21913;52.456;13.634;2023-02-25T08:33:07;3.08;;;1.20;;
25155;SDS011;21913;52.456;13.634;2023-02-25T08:38:09;6.45;;;1.52;;
25155;SDS011;21913;52.456;13.634;2023-02-25T08:43:11;4.18;;;1.40;;
25155;SDS011;21913;52.456;13.634;2023-02-25T08:48:12;4.00;;;1.55;;
25155;SDS011;21913;52.456;13.634;2023-02-25T08:53:14;4.13;;;1.40;;
25155;SDS011;21913;52.456;13.634;2023-02-25T08:58:16;6.57;;;1.70;;
25155;SDS011;21913;52.456;13.634;2023-02-25T09:03:17;3.70;;;1.40;;
25155;SDS011;21913;52.456;13.634;2023-02-25T09:08:19;5.03;;;1.50;;
25155;SDS011;21913;52.456;13.634;2023-02-25T09:13:21;4.05;;;1.60;;
25155;SDS011;21913;52.456;13.634;2023-02-25T09:18:23;4.60;;;1.60;;
25155;SDS011;21913;52.456;13.634;2023-02-25T09:23:25;3.60;;;1.30;;
25155;SDS011;21913;52.456;13.634;2023-02-25T09:28:27;3.30;;;1.25;;
25155;SDS011;21913;52.456;13.634;2023-02-25T09:33:31;4.22;;;1.10;;
25155;SDS011;21913;52.456;13.634;2023-02-25T09:38:35;4.22;;;1.50;;
25155;SDS011;21913;52.456;13.634;2023-02-25T09:43:39;2.67;;;1.15;;
25155;SDS011;21913;52.456;13.634;2023-02-25T09:48:54;4.90;;;1.38;;
25155;SDS011;21913;52.456;13.634;2023-02-25T09:54:17;3.55;;;1.30;;
25155;SDS011;21913;52.456;13.634;2023-02-25T09:59:28;5.55;;;1.48;;
25155;SDS011;21913;52.456;13.634;2023-02-25T10:09:37;3.63;;;1.50;;
25155;SDS011;21913;52.456;13.634;2023-02-25T10:19:57;3.25;;;1.30;;
25155;SDS011;21913;52.456;13.634;2023-02-25T10:25:15;5.80;;;1.55;;
25155;SDS011;21913;52.456;13.634;2023-02-25T10:30:22;3.60;;;1.10;;
25155;SDS011;21913;52.456;13.634;2023-02-25T10:35:28;5.60;;;1.30;;
25155;SDS011;21913;52.456;13.634;2023-02-25T10:40:35;3.50;;;1.35;;
25155;SDS011;21913;52.456;13.634;2023-02-25T10:45:37;3.78;;;1.23;;
25155;SDS011;21913;52.456;13.634;2023-02-25T10:50:40;4.05;;;1.50;;
25155;SDS011;21913;52.456;13.634;2023-02-25T10:55:48;4.43;;;1.35;;
25155;SDS011;21913;52.456;13.634;2023-02-25T11:00:56;3.13;;;1.10;;
25155;SDS011;21913;52.456;13.634;2023-02-25T11:06:07;3.90;;;1.20;;
25155;SDS011;21913;52.456;13.634;2023-02-25T11:11:15;3.35;;;1.33;;
25155;SDS011;21913;52.456;13.634;2023-02-25T11:16:19;4.35;;;1.30;;
25155;SDS011;21913;52.456;13.634;2023-02-25T11:21:31;2.85;;;1.15;;
25155;SDS011;21913;52.456;13.634;2023-02-25T11:26:37;2.67;;;1.00;;
25155;SDS011;21913;52.456;13.634;2023-02-25T11:31:47;3.47;;;1.20;;
25155;SDS011;21913;52.456;13.634;2023-02-25T11:36:54;3.17;;;1.00;;
25155;SDS011;21913;52.456;13.634;2023-02-25T11:41:56;4.22;;;1.35;;
25155;SDS011;21913;52.456;13.634;2023-02-25T12:03:31;3.15;;;1.30;;
25155;SDS011;21913;52.456;13.634;2023-02-25T12:13:47;2.60;;;1.25;;
25155;SDS011;21913;52.456;13.634;2023-02-25T12:24:51;3.05;;;1.20;;
25155;SDS011;21913;52.456;13.634;2023-02-25T12:30:31;2.97;;;1.10;;
25155;SDS011;21913;52.456;13.634;2023-02-25T12:46:53;2.97;;;1.15;;
25155;SDS011;21913;52.456;13.634;2023-02-25T13:08:35;2.38;;;1.17;;
25155;SDS011;21913;52.456;13.634;2023-02-25T13:24:31;4.40;;;1.38;;
25155;SDS011;21913;52.456;13.634;2023-02-25T13:35:05;3.13;;;1.30;;
25155;SDS011;21913;52.456;13.634;2023-02-25T13:45:30;2.72;;;1.08;;
25155;SDS011;21913;52.456;13.634;2023-02-25T14:18:35;3.78;;;1.10;;
25155;SDS011;21913;52.456;13.634;2023-02-25T14:23:41;3.53;;;1.15;;
25155;SDS011;21913;52.456;13.634;2023-02-25T15:06:05;2.58;;;0.98;;
25155;SDS011;21913;52.456;13.634;2023-02-25T15:38:07;1.55;;;0.85;;
25155;SDS011;21913;52.456;13.634;2023-02-25T16:08:44;2.17;;;0.90;;
25155;SDS011;21913;52.456;13.634;2023-02-25T16:13:50;2.13;;;0.70;;
25155;SDS011;21913;52.456;13.634;2023-02-25T16:18:52;1.52;;;0.90;;
25155;SDS011;21913;52.456;13.634;2023-02-25T16:23:57;1.65;;;0.70;;
25155;SDS011;21913;52.456;13.634;2023-02-25T16:34:22;2.30;;;1.08;;
25155;SDS011;21913;52.456;13.634;2023-02-25T16:39:26;1.52;;;0.70;;
25155;SDS011;21913;52.456;13.634;2023-02-25T16:44:33;1.73;;;0.88;;
25155;SDS011;21913;52.456;13.634;2023-02-25T16:49:39;2.58;;;0.90;;
25155;SDS011;21913;52.456;13.634;2023-02-25T16:54:46;2.95;;;1.00;;
25155;SDS011;21913;52.456;13.634;2023-02-25T17:00:31;2.25;;;0.82;;
25155;SDS011;21913;52.456;13.634;2023-02-25T17:10:33;2.55;;;0.95;;
25155;SDS011;21913;52.456;13.634;2023-02-25T17:15:42;1.63;;;0.77;;
25155;SDS011;21913;52.456;13.634;2023-02-25T17:20:44;3.08;;;0.90;;
25155;SDS011;21913;52.456;13.634;2023-02-25T17:25:47;3.67;;;0.90;;
25155;SDS011;21913;52.456;13.634;2023-02-25T17:30:49;1.98;;;0.90;;
25155;SDS011;21913;52.456;13.634;2023-02-25T17:35:51;1.83;;;0.90;;
25155;SDS011;21913;52.456;13.634;2023-02-25T17:40:56;2.70;;;0.90;;
25155;SDS011;21913;52.456;13.634;2023-02-25T17:45:59;3.25;;;0.95;;
25155;SDS011;21913;52.456;13.634;2023-02-25T17:51:04;2.78;;;1.17;;
25155;SDS011;21913;52.456;13.634;2023-02-25T17:56:20;2.13;;;0.98;;
25155;SDS011;21913;52.456;13.634;2023-02-25T18:01:28;2.97;;;1.10;;
25155;SDS011;21913;52.456;13.634;2023-02-25T18:06:37;2.13;;;0.90;;
25155;SDS011;21913;52.456;13.634;2023-02-25T18:11:40;1.92;;;0.90;;
25155;SDS011;21913;52.456;13.634;2023-02-25T18:16:42;3.15;;;1.05;;
25155;SDS011;21913;52.456;13.634;2023-02-25T18:21:44;2.95;;;1.10;;
25155;SDS011;21913;52.456;13.634;2023-02-25T18:32:08;3.97;;;1.20;;
25155;SDS011;21913;52.456;13.634;2023-02-25T18:37:13;1.98;;;1.00;;
25155;SDS011;21913;52.456;13.634;2023-02-25T18:42:16;1.85;;;0.90;;
25155;SDS011;21913;52.456;13.634;2023-02-25T18:47:19;1.38;;;0.80;;
25155;SDS011;21913;52.456;13.634;2023-02-25T18:52:21;4.53;;;1.25;;
25155;SDS011;21913;52.456;13.634;2023-02-25T18:57:24;2.50;;;1.10;;
25155;SDS011;21913;52.456;13.634;2023-02-25T19:02:33;2.80;;;1.10;;
25155;SDS011;21913;52.456;13.634;2023-02-25T19:07:36;2.28;;;0.93;;
25155;SDS011;21913;52.456;13.634;2023-02-25T19:12:39;4.93;;;1.10;;
25155;SDS011;21913;52.456;13.634;2023-02-25T19:17:41;3.90;;;1.10;;
25155;SDS011;21913;52.456;13.634;2023-02-25T19:22:43;3.42;;;1.13;;
25155;SDS011;21913;52.456;13.634;2023-02-25T19:27:46;2.05;;;1.10;;
25155;SDS011;21913;52.456;13.634;2023-02-25T19:32:48;2.45;;;1.00;;
25155;SDS011;21913;52.456;13.634;2023-02-25T19:37:50;3.13;;;1.20;;
25155;SDS011;21913;52.456;13.634;2023-02-25T19:42:51;2.75;;;1.00;;
25155;SDS011;21913;52.456;13.634;2023-02-25T19:47:53;2.63;;;1.23;;
25155;SDS011;21913;52.456;13.634;2023-02-25T19:52:55;2.35;;;1.20;;
25155;SDS011;21913;52.456;13.634;2023-02-25T19:57:57;2.17;;;1.10;;
25155;SDS011;21913;52.456;13.634;2023-02-25T20:02:58;2.85;;;1.30;;
25155;SDS011;21913;52.456;13.634;2023-02-25T20:08:00;2.60;;;1.05;;
25155;SDS011;21913;52.456;13.634;2023-02-25T20:13:02;2.85;;;1.30;;
25155;SDS011;21913;52.456;13.634;2023-02-25T20:18:03;2.55;;;1.05;;
25155;SDS011;21913;52.456;13.634;2023-02-25T20:23:05;4.03;;;1.00;;
25155;SDS011;21913;52.456;13.634;2023-02-25T20:28:07;3.50;;;1.40;;
25155;SDS011;21913;52.456;13.634;2023-02-25T20:33:08;3.50;;;1.30;;
25155;SDS011;21913;52.456;13.634;2023-02-25T20:38:15;1.83;;;0.90;;
25155;SDS011;21913;52.456;13.634;2023-02-25T20:43:26;1.95;;;0.93;;
25155;SDS011;21913;52.456;13.634;2023-02-25T20:48:30;3.35;;;1.25;;
25155;SDS011;21913;52.456;13.634;2023-02-25T20:53:32;1.98;;;0.95;;
25155;SDS011;21913;52.456;13.634;2023-02-25T20:58:34;2.97;;;1.20;;
25155;SDS011;21913;52.456;13.634;2023-02-25T21:03:36;2.20;;;1.17;;
25155;SDS011;21913;52.456;13.634;2023-02-25T21:08:38;2.20;;;1.08;;
25155;SDS011;21913;52.456;13.634;2023-02-25T21:13:40;2.67;;;1.17;;
25155;SDS011;21913;52.456;13.634;2023-02-25T21:18:42;2.47;;;1.10;;
25155;SDS011;21913;52.456;13.634;2023-02-25T21:23:44;2.72;;;1.20;;
25155;SDS011;21913;52.456;13.634;2023-02-25T21:28:46;2.05;;;1.00;;
25155;SDS011;21913;52.456;13.634;2023-02-25T21:33:48;2.47;;;0.93;;
25155;SDS011;21913;52.456;13.634;2023-02-25T21:38:50;2.40;;;0.95;;
25155;SDS011;21913;52.456;13.634;2023-02-25T21:43:51;2.15;;;1.10;;
25155;SDS011;21913;52.456;13.634;2023-02-25T21:48:53;2.67;;;0.98;;
25155;SDS011;21913;52.456;13.634;2023-02-25T21:53:57;1.88;;;0.95;;
25155;SDS011;21913;52.456;13.634;2023-02-25T21:59:00;2.25;;;1.02;;
25155;SDS011;21913;52.456;13.634;2023-02-25T22:04:03;2.17;;;0.95;;
25155;SDS011;21913;52.456;13.634;2023-02-25T22:09:05;2.38;;;1.00;;
25155;SDS011;21913;52.456;13.634;2023-02-25T22:14:07;2.65;;;1.10;;
25155;SDS011;21913;52.456;13.634;2023-02-25T22:19:09;2.40;;;0.90;;
25155;SDS011;21913;52.456;13.634;2023-02-25T22:24:11;1.85;;;1.02;;
25155;SDS011;21913;52.456;13.634;2023-02-25T22:29:13;2.17;;;1.08;;
25155;SDS011;21913;52.456;13.634;2023-02-25T22:34:21;2.35;;;1.15;;
25155;SDS011;21913;52.456;13.634;2023-02-25T22:39:22;2.22;;;1.00;;
25155;SDS011;21913;52.456;13.634;2023-02-25T22:44:24;2.75;;;1.05;;
25155;SDS011;21913;52.456;13.634;2023-02-25T22:49:26;2.58;;;0.93;;
25155;SDS011;21913;52.456;13.634;2023-02-25T22:54:27;2.35;;;1.00;;
25155;SDS011;21913;52.456;13.634;2023-02-25T22:59:29;2.00;;;1.00;;
25155;SDS011;21913;52.456;13.634;2023-02-25T23:04:30;2.67;;;1.15;;
25155;SDS011;21913;52.456;13.634;2023-02-25T23:09:32;2.10;;;1.10;;
25155;SDS011;21913;52.456;13.634;2023-02-25T23:14:34;2.25;;;0.90;;
25155;SDS011;21913;52.456;13.634;2023-02-25T23:19:35;2.05;;;1.00;;
25155;SDS011;21913;52.456;13.634;2023-02-25T23:24:37;2.45;;;1.00;;
25155;SDS011;21913;52.456;13.634;2023-02-25T23:29:39;2.38;;;1.00;;
25155;SDS011;21913;52.456;13.634;2023-02-25T23:34:40;3.05;;;1.27;;
25155;SDS011;21913;52.456;13.634;2023-02-25T23:39:42;2.05;;;1.00;;
25155;SDS011;21913;52.456;13.634;2023-02-25T23:44:46;2.42;;;1.00;;
25155;SDS011;21913;52.456;13.634;2023-02-25T23:49:47;2.17;;;1.15;;
25155;SDS011;21913;52.456;13.634;2023-02-25T23:54:49;2.92;;;1.15;;
25155;SDS011;21913;52.456;13.634;2023-02-25T23:59:51;2.50;;;1.00;;
